Time;durP1;ratioP1;P1;durP2;ratioP2;P2;SDS_P1;SDS_P2;PMS_P1;PMS_P2;Temp;Humidity;BMP_temperature;BMP_pressure;BME280_temperature;BME280_humidity;BME280_pressure;Samples;Min_cycle;Max_cycle;Signal;HPM_P1;HPM_P2
2022/12/13 00:02:11;;;;;;;36.97;18.50;;;;;;;-4.80;100.00;98751.09;4989699;28;20199;-78
2022/12/13 00:04:40;;;;;;;43.73;19.77;;;;;;;-4.75;100.00;98742.41;4984996;28;20319;-78
2022/12/13 00:07:11;;;;;;;41.83;19.20;;;;;;;-4.78;100.00;98744.19;4985555;28;20196;-79
2022/12/13 00:09:41;;;;;;;41.77;18.27;;;;;;;-4.84;100.00;98741.63;4909824;29;20268;-78
2022/12/13 00:12:11;;;;;;;45.57;19.73;;;;;;;-4.79;100.00;98742.47;4947699;29;20251;-79
2022/12/13 00:14:40;;;;;;;37.10;17.77;;;;;;;-4.76;100.00;98737.25;4948675;28;20201;-78
2022/12/13 00:17:09;;;;;;;36.77;18.20;;;;;;;-4.67;100.00;98726.84;5003709;28;20210;-78
2022/12/13 00:19:37;;;;;;;42.10;18.87;;;;;;;-4.70;100.00;98740.66;5025517;28;20661;-78
2022/12/13 00:22:06;;;;;;;37.17;18.47;;;;;;;-4.76;100.00;98735.53;5028328;28;20205;-79
2022/12/13 00:24:35;;;;;;;36.43;17.73;;;;;;;-4.91;100.00;98730.53;5025918;28;20220;-79
2022/12/13 00:27:11;;;;;;;35.07;17.33;;;;;;;-4.90;100.00;98727.94;5032020;28;20204;-78
2022/12/13 00:29:40;;;;;;;35.63;17.07;;;;;;;-4.88;100.00;98727.91;5027194;28;20202;-79
2022/12/13 00:32:08;;;;;;;35.10;16.73;;;;;;;-5.03;100.00;98722.88;5027431;28;20194;-79
2022/12/13 00:34:37;;;;;;;32.70;16.77;;;;;;;-5.10;100.00;98716.94;5050875;28;20196;-79
2022/12/13 00:37:06;;;;;;;28.23;14.83;;;;;;;-5.13;100.00;98724.69;5068988;28;20227;-79
2022/12/13 00:39:35;;;;;;;33.17;15.83;;;;;;;-5.28;100.00;98722.25;5067723;28;20720;-79
2022/12/13 00:42:03;;;;;;;32.80;16.03;;;;;;;-5.17;100.00;98717.84;5069180;28;20415;-78
2022/12/13 00:44:34;;;;;;;30.20;14.67;;;;;;;-5.18;100.00;98709.25;5071725;28;20281;-78
2022/12/13 00:47:04;;;;;;;28.97;15.10;;;;;;;-5.14;100.00;98709.22;5074993;28;20216;-77
2022/12/13 00:49:32;;;;;;;30.97;15.67;;;;;;;-5.19;100.00;98701.53;5010844;28;20232;-77
2022/12/13 00:52:03;;;;;;;31.30;15.60;;;;;;;-5.36;100.00;98704.22;5007311;28;20191;-78
2022/12/13 00:54:32;;;;;;;29.80;15.77;;;;;;;-5.24;100.00;98695.53;5010094;28;20222;-78
2022/12/13 00:57:01;;;;;;;27.43;14.50;;;;;;;-5.36;100.00;98699.06;5010686;28;20202;-78
2022/12/13 00:59:29;;;;;;;29.37;14.40;;;;;;;-5.38;100.00;98692.22;5004979;28;20199;-77
2022/12/13 01:01:59;;;;;;;30.80;14.40;;;;;;;-5.33;100.00;98685.28;5009108;28;20304;-78
2022/12/13 01:04:28;;;;;;;29.80;13.97;;;;;;;-5.32;100.00;98681.81;5005763;28;20229;-77
2022/12/13 01:06:56;;;;;;;27.90;14.47;;;;;;;-5.31;100.00;98683.53;5010532;28;20191;-77
2022/12/13 01:09:31;;;;;;;29.13;14.03;;;;;;;-5.28;100.00;98684.38;5009827;28;20195;-77
2022/12/13 01:12:01;;;;;;;24.33;12.63;;;;;;;-5.26;100.00;98682.63;5008858;28;20257;-77
2022/12/13 01:14:33;;;;;;;28.83;14.17;;;;;;;-5.38;100.00;98689.63;5048669;28;20208;-77
2022/12/13 01:17:04;;;;;;;28.23;14.23;;;;;;;-5.37;100.00;98683.59;5071589;28;20196;-77
2022/12/13 01:19:33;;;;;;;31.17;13.70;;;;;;;-5.48;100.00;98686.28;5069584;28;20197;-77
2022/12/13 01:22:05;;;;;;;27.60;13.20;;;;;;;-5.54;100.00;98683.72;5070397;28;20192;-78
2022/12/13 01:24:34;;;;;;;30.60;13.87;;;;;;;-5.58;100.00;98685.47;5074200;28;20220;-78
2022/12/13 01:27:02;;;;;;;26.60;14.17;;;;;;;-5.58;100.00;98688.06;5071010;28;20227;-78
2022/12/13 01:29:32;;;;;;;26.50;13.57;;;;;;;-5.65;100.00;98686.38;5069653;28;20188;-78
2022/12/13 01:32:00;;;;;;;28.60;13.80;;;;;;;-5.52;100.00;98684.56;5065609;28;20230;-79
2022/12/13 01:34:31;;;;;;;29.73;14.73;;;;;;;-5.55;100.00;98677.72;5069124;28;20197;-79
2022/12/13 01:37:01;;;;;;;28.77;14.20;;;;;;;-5.67;100.00;98684.69;5064288;28;20205;-78
2022/12/13 01:39:30;;;;;;;28.57;13.93;;;;;;;-5.63;100.00;98681.22;5027601;28;20190;-78
2022/12/13 01:42:05;;;;;;;27.73;14.33;;;;;;;-5.69;100.00;98681.25;5030630;28;20193;-79
2022/12/13 01:45:08;;;;;;;29.80;14.20;;;;;;;-5.67;100.00;98685.53;5039386;28;20594;-79
2022/12/13 01:47:41;;;;;;;27.93;13.53;;;;;;;-5.69;100.00;98682.13;5050728;28;20192;-78
2022/12/13 01:50:14;;;;;;;26.30;12.63;;;;;;;-5.67;100.00;98680.38;5045558;28;20200;-78
2022/12/13 01:52:44;;;;;;;27.20;13.37;;;;;;;-5.69;100.00;98687.28;5049063;28;20197;-78
2022/12/13 01:55:27;;;;;;;24.47;13.30;;;;;;;-5.65;100.00;98688.97;5047219;28;20225;-79
2022/12/13 01:57:58;;;;;;;26.07;13.47;;;;;;;-5.67;100.00;98684.69;5048838;28;20282;-78
2022/12/13 02:00:27;;;;;;;29.63;13.20;;;;;;;-5.65;100.00;98686.38;5051204;28;20407;-78
2022/12/13 02:03:00;;;;;;;33.17;13.80;;;;;;;-5.75;100.00;98687.31;5043141;28;20189;-78
2022/12/13 02:05:35;;;;;;;34.67;15.40;;;;;;;-5.83;100.00;98689.94;4962296;28;20235;-78
2022/12/13 02:08:05;;;;;;;32.73;15.47;;;;;;;-5.81;100.00;98687.34;4965121;28;20283;-78
2022/12/13 02:10:34;;;;;;;29.83;14.80;;;;;;;-5.79;100.00;98683.91;4974110;28;20209;-78
2022/12/13 02:13:02;;;;;;;33.43;14.53;;;;;;;-5.71;100.00;98676.09;4978889;28;20199;-78
2022/12/13 02:16:14;;;;;;;31.03;14.40;;;;;;;-5.69;100.00;98688.97;4968275;28;20227;-78
2022/12/13 02:19:09;;;;;;;31.73;14.40;;;;;;;-5.69;100.00;98689.88;4956495;28;20254;-78
2022/12/13 02:21:55;;;;;;;32.30;14.53;;;;;;;-5.78;100.00;98684.78;4953937;29;20236;-77
2022/12/13 02:24:48;;;;;;;31.00;14.23;;;;;;;-5.72;100.00;98689.00;4999757;28;20214;-78
2022/12/13 02:27:35;;;;;;;29.67;14.10;;;;;;;-5.77;100.00;98689.91;5007817;28;20325;-78
2022/12/13 02:30:38;;;;;;;30.43;14.17;;;;;;;-5.81;100.00;98695.06;4953037;29;20203;-78
2022/12/13 02:33:26;;;;;;;31.90;13.93;;;;;;;-5.79;100.00;98691.66;4952964;29;20204;-78
2022/12/13 02:36:06;;;;;;;33.60;14.50;;;;;;;-5.82;100.00;98677.91;4949722;29;20529;-78
2022/12/13 02:38:41;;;;;;;29.73;13.73;;;;;;;-5.80;100.00;98679.59;4949553;28;20208;-78
2022/12/13 02:41:30;;;;;;;28.33;13.97;;;;;;;-5.89;100.00;98683.94;4972258;28;20373;-78
2022/12/13 02:44:04;;;;;;;26.70;13.23;;;;;;;-5.85;100.00;98680.50;4988437;28;20234;-78
2022/12/13 02:46:55;;;;;;;29.17;13.43;;;;;;;-5.98;100.00;98668.56;5004989;28;20229;-79
2022/12/13 02:49:25;;;;;;;28.27;12.97;;;;;;;-5.93;100.00;98683.16;5045726;28;20250;-78
2022/12/13 02:51:56;;;;;;;28.63;13.57;;;;;;;-5.97;100.00;98678.91;5048219;28;20197;-78
2022/12/13 02:54:26;;;;;;;26.97;13.03;;;;;;;-5.99;100.00;98670.28;5052611;28;20200;-78
2022/12/13 02:56:56;;;;;;;32.23;14.80;;;;;;;-5.96;100.00;98670.28;5054004;28;20220;-78
2022/12/13 02:59:34;;;;;;;29.30;14.07;;;;;;;-5.86;100.00;98671.91;5051723;28;20200;-78
2022/12/13 03:02:17;;;;;;;25.07;13.13;;;;;;;-5.71;100.00;98670.94;5001736;28;20209;-78
2022/12/13 03:08:07;;;;;;;29.43;13.30;;;;;;;-5.66;100.00;98664.03;5049512;28;20224;-77
2022/12/13 03:10:43;;;;;;;31.20;13.47;;;;;;;-5.83;100.00;98661.56;5052516;28;20243;-77
2022/12/13 03:13:36;;;;;;;33.17;14.20;;;;;;;-5.73;100.00;98659.78;5052162;28;20713;-77
2022/12/13 03:16:11;;;;;;;39.00;15.27;;;;;;;-5.89;100.00;98653.88;5049340;28;20193;-77
2022/12/13 03:18:42;;;;;;;30.50;15.33;;;;;;;-6.13;100.00;98662.66;5049503;28;20215;-78
2022/12/13 03:21:13;;;;;;;35.20;14.93;;;;;;;-5.96;100.00;98652.25;5047012;28;20205;-77
2022/12/13 03:23:43;;;;;;;34.63;14.57;;;;;;;-5.94;100.00;98658.25;5051869;28;20213;-78
2022/12/13 03:26:17;;;;;;;36.67;15.13;;;;;;;-6.03;100.00;98654.88;5046292;28;20290;-77
2022/12/13 03:28:45;;;;;;;39.67;14.70;;;;;;;-5.90;100.00;98657.31;5045302;28;20333;-77
2022/12/13 03:31:14;;;;;;;35.87;14.77;;;;;;;-5.93;100.00;98659.97;5052499;28;20193;-77
2022/12/13 03:33:44;;;;;;;40.97;16.07;;;;;;;-6.02;100.00;98662.59;5048544;28;20253;-78
2022/12/13 03:36:19;;;;;;;39.67;15.93;;;;;;;-5.87;100.00;98659.91;5051921;28;20247;-77
2022/12/13 03:38:51;;;;;;;41.50;17.00;;;;;;;-5.89;100.00;98656.44;5047342;28;20239;-77
2022/12/13 03:41:30;;;;;;;36.90;15.97;;;;;;;-5.98;100.00;98659.16;5048833;28;20189;-77
2022/12/13 03:44:04;;;;;;;36.80;15.60;;;;;;;-5.97;100.00;98660.00;5048951;28;20236;-79
2022/12/13 03:46:34;;;;;;;34.57;15.03;;;;;;;-6.11;100.00;98652.34;5014545;28;20217;-77
2022/12/13 03:49:04;;;;;;;36.83;14.80;;;;;;;-6.13;100.00;98652.34;5046639;28;20515;-77
2022/12/13 03:51:36;;;;;;;38.00;16.10;;;;;;;-6.34;100.00;98655.03;5053195;28;20203;-77
2022/12/13 03:54:06;;;;;;;34.10;15.33;;;;;;;-6.40;100.00;98655.91;5048937;28;20196;-77
2022/12/13 03:56:35;;;;;;;34.10;15.23;;;;;;;-6.47;100.00;98648.22;5013932;28;20206;-78
2022/12/13 03:59:05;;;;;;;35.83;15.50;;;;;;;-6.53;100.00;98645.69;5008789;28;20191;-77
2022/12/13 04:01:33;;;;;;;31.03;15.03;;;;;;;-6.42;100.00;98639.63;5007321;28;20353;-78
2022/12/13 04:04:02;;;;;;;34.07;15.63;;;;;;;-6.49;100.00;98649.94;5009689;28;20297;-78
2022/12/13 04:06:32;;;;;;;34.53;14.50;;;;;;;-6.45;100.00;98651.66;5008380;28;20214;-77
2022/12/13 04:09:01;;;;;;;31.17;15.07;;;;;;;-6.46;100.00;98648.22;4987192;28;20206;-77
2022/12/13 04:14:17;;;;;;;31.00;13.53;;;;;;;-6.58;100.00;98647.41;4997309;28;20333;-77
2022/12/13 04:16:51;;;;;;;29.27;12.80;;;;;;;-6.52;100.00;98644.81;5010194;28;20206;-78
2022/12/13 04:19:21;;;;;;;29.70;13.60;;;;;;;-6.52;100.00;98652.53;4951136;29;20243;-78
2022/12/13 04:21:53;;;;;;;26.07;12.17;;;;;;;-6.49;100.00;98649.94;4955219;29;20230;-78
2022/12/13 04:24:24;;;;;;;30.77;14.07;;;;;;;-6.52;100.00;98649.97;4950350;29;20703;-78
2022/12/13 04:26:59;;;;;;;29.90;13.73;;;;;;;-6.56;100.00;98648.25;4968640;28;20265;-79
2022/12/13 04:29:28;;;;;;;28.67;13.63;;;;;;;-6.60;100.00;98650.00;4987934;28;20207;-78
2022/12/13 04:32:03;;;;;;;29.93;14.20;;;;;;;-6.55;100.00;98652.56;4992373;28;20199;-77
2022/12/13 04:34:32;;;;;;;29.63;14.47;;;;;;;-6.60;100.00;98649.13;4990142;28;20218;-77
2022/12/13 04:37:06;;;;;;;27.53;13.10;;;;;;;-6.57;100.00;98638.81;5011740;28;20189;-77
2022/12/13 04:39:35;;;;;;;29.23;13.57;;;;;;;-6.56;100.00;98643.09;5054749;28;20235;-77
2022/12/13 04:42:05;;;;;;;26.70;13.23;;;;;;;-6.57;100.00;98642.25;5055165;28;20204;-77
2022/12/13 04:44:34;;;;;;;30.97;13.10;;;;;;;-6.54;100.00;98644.81;5054612;28;20232;-77
2022/12/13 04:47:08;;;;;;;32.53;14.50;;;;;;;-6.51;100.00;98644.81;5054918;28;20213;-78
2022/12/13 04:49:36;;;;;;;34.13;14.60;;;;;;;-6.52;100.00;98642.25;5003386;28;20671;-78
2022/12/13 04:52:06;;;;;;;28.73;12.87;;;;;;;-6.50;100.00;98648.22;5046825;28;20278;-78
2022/12/13 04:54:34;;;;;;;29.33;13.43;;;;;;;-6.54;100.00;98643.97;5051031;28;20201;-78
2022/12/13 04:57:07;;;;;;;30.63;14.50;;;;;;;-6.53;100.00;98641.38;5048570;28;20201;-77
2022/12/13 04:59:36;;;;;;;32.87;13.87;;;;;;;-6.55;100.00;98632.81;5051969;28;20216;-78
2022/12/13 05:02:05;;;;;;;28.97;13.47;;;;;;;-6.54;100.00;98637.09;4993639;28;20262;-78
2022/12/13 05:04:34;;;;;;;30.70;13.70;;;;;;;-6.58;100.00;98637.09;4943138;28;20201;-78
2022/12/13 05:07:03;;;;;;;44.03;21.13;;;;;;;-6.52;100.00;98639.66;4989856;28;20211;-77
2022/12/13 05:09:33;;;;;;;43.73;21.03;;;;;;;-6.49;100.00;98642.22;4994670;28;20214;-78
2022/12/13 05:12:02;;;;;;;32.77;15.13;;;;;;;-6.50;100.00;98637.94;4988492;28;20276;-78
2022/12/13 05:14:34;;;;;;;30.63;13.53;;;;;;;-6.49;100.00;98637.06;4993312;28;20199;-78
2022/12/13 05:17:03;;;;;;;27.03;13.17;;;;;;;-6.47;100.00;98638.75;4986160;28;20579;-78
2022/12/13 05:19:33;;;;;;;34.57;15.30;;;;;;;-6.49;100.00;98642.22;4960020;28;20675;-78
2022/12/13 05:22:02;;;;;;;28.27;13.70;;;;;;;-6.45;100.00;98637.06;4991421;28;20200;-77
2022/12/13 05:24:33;;;;;;;28.40;13.03;;;;;;;-6.45;100.00;98637.06;4987044;28;20722;-78
2022/12/13 05:27:02;;;;;;;32.17;14.53;;;;;;;-6.55;100.00;98644.84;4992790;28;20237;-78
2022/12/13 05:29:50;;;;;;;28.13;14.40;;;;;;;-6.54;100.00;98646.56;4993109;28;20639;-78
2022/12/13 05:32:33;;;;;;;29.20;13.83;;;;;;;-6.47;100.00;98650.78;4992186;28;20256;-78
2022/12/13 05:35:14;;;;;;;28.03;13.00;;;;;;;-6.53;100.00;98645.69;5009523;28;20244;-78
2022/12/13 05:37:51;;;;;;;32.10;13.93;;;;;;;-6.50;100.00;98641.38;5009890;28;20194;-78
2022/12/13 05:40:25;;;;;;;30.30;14.23;;;;;;;-6.50;100.00;98636.22;4931292;29;20338;-78
2022/12/13 05:42:54;;;;;;;32.10;13.93;;;;;;;-6.57;100.00;98633.66;4932021;29;20234;-78
2022/12/13 05:45:29;;;;;;;33.60;15.10;;;;;;;-6.48;100.00;98634.47;4932581;29;20276;-78
2022/12/13 05:47:57;;;;;;;36.80;16.23;;;;;;;-6.51;100.00;98629.34;4929096;29;20201;-78
2022/12/13 05:50:26;;;;;;;37.93;17.20;;;;;;;-6.56;100.00;98628.53;4928622;29;20649;-78
2022/12/13 05:52:56;;;;;;;40.70;17.30;;;;;;;-6.59;100.00;98625.09;4951211;29;20215;-78
2022/12/13 05:55:26;;;;;;;39.13;18.63;;;;;;;-6.59;100.00;98623.38;4953775;28;20239;-77
2022/12/13 05:57:58;;;;;;;38.67;16.83;;;;;;;-6.61;100.00;98621.69;4977421;28;20197;-78
2022/12/13 06:00:31;;;;;;;38.93;18.57;;;;;;;-6.61;100.00;98617.38;5003620;28;20193;-78
2022/12/13 06:03:02;;;;;;;40.63;18.50;;;;;;;-6.56;100.00;98617.34;5046997;28;20201;-77
2022/12/13 06:05:32;;;;;;;38.47;19.13;;;;;;;-6.57;100.00;98611.34;5049952;28;20648;-77
2022/12/13 06:08:01;;;;;;;37.30;17.80;;;;;;;-6.61;100.00;98613.97;5050641;28;20227;-77
2022/12/13 06:10:55;;;;;;;38.70;17.27;;;;;;;-6.48;100.00;98616.44;5054502;28;20197;-78
2022/12/13 06:13:40;;;;;;;33.13;16.13;;;;;;;-6.50;100.00;98612.19;5049583;28;20208;-78
2022/12/13 06:16:12;;;;;;;34.47;14.97;;;;;;;-6.41;100.00;98618.13;5053460;28;20223;-78
2022/12/13 06:18:51;;;;;;;35.97;15.90;;;;;;;-6.41;100.00;98625.00;5049556;28;20196;-77
2022/12/13 06:21:31;;;;;;;40.43;17.93;;;;;;;-6.50;100.00;98630.22;5064075;28;20192;-77
2022/12/13 06:24:14;;;;;;;42.37;18.17;;;;;;;-6.62;100.00;98628.56;5067760;28;20218;-77
2022/12/13 06:26:44;;;;;;;32.17;14.73;;;;;;;-6.35;100.00;98632.72;5065230;28;20224;-77
2022/12/13 06:29:14;;;;;;;34.70;14.73;;;;;;;-6.53;100.00;98627.66;5073076;28;20189;-77
2022/12/13 06:31:58;;;;;;;30.93;14.37;;;;;;;-6.45;100.00;98633.63;5073198;28;20188;-77
2022/12/13 06:34:32;;;;;;;33.83;14.50;;;;;;;-6.36;100.00;98628.44;5071838;28;20192;-77
2022/12/13 06:37:01;;;;;;;35.60;15.93;;;;;;;-6.57;100.00;98633.66;5068373;28;20200;-77
2022/12/13 06:39:30;;;;;;;33.73;16.60;;;;;;;-6.61;100.00;98635.41;5070064;28;20200;-77
2022/12/13 06:42:15;;;;;;;38.47;16.93;;;;;;;-6.86;100.00;98633.78;5067029;28;20204;-77
2022/12/13 06:44:51;;;;;;;34.17;15.97;;;;;;;-6.85;100.00;98633.78;5068449;28;20282;-77
2022/12/13 06:47:24;;;;;;;37.57;16.43;;;;;;;-6.83;100.00;98632.06;5067594;28;20234;-77
2022/12/13 06:50:00;;;;;;;32.53;15.63;;;;;;;-6.94;100.00;98638.97;5065816;28;20290;-78
2022/12/13 06:52:33;;;;;;;32.37;14.90;;;;;;;-7.03;100.00;98637.28;5066322;28;20215;-77
2022/12/13 06:55:01;;;;;;;36.63;16.67;;;;;;;-6.99;100.00;98640.69;5069996;28;20197;-77
2022/12/13 06:57:34;;;;;;;42.33;18.43;;;;;;;-6.93;100.00;98638.09;5068458;28;20216;-77
2022/12/13 07:00:04;;;;;;;32.83;15.83;;;;;;;-6.85;100.00;98638.06;5066211;28;20200;-77
2022/12/13 07:02:32;;;;;;;38.13;16.50;;;;;;;-6.90;100.00;98642.38;5069699;28;20200;-77
2022/12/13 07:05:02;;;;;;;39.53;17.33;;;;;;;-6.90;100.00;98639.81;5068846;28;20184;-78
2022/12/13 07:07:30;;;;;;;34.33;16.23;;;;;;;-6.97;100.00;98638.94;5072503;28;20211;-77
2022/12/13 07:10:00;;;;;;;34.67;17.20;;;;;;;-6.99;100.00;98640.69;5068039;28;20188;-77
2022/12/13 07:12:29;;;;;;;41.60;17.77;;;;;;;-6.84;100.00;98627.78;5069587;28;20207;-77
2022/12/13 07:15:02;;;;;;;35.97;16.93;;;;;;;-6.84;100.00;98638.06;5069429;28;20188;-77
2022/12/13 07:17:30;;;;;;;36.87;15.87;;;;;;;-6.83;100.00;98642.38;5065324;28;20196;-77
2022/12/13 07:20:08;;;;;;;32.57;14.60;;;;;;;-6.65;100.00;98650.03;4989533;28;20217;-77
2022/12/13 07:22:37;;;;;;;31.70;15.03;;;;;;;-6.84;100.00;98644.94;4991107;28;20197;-77
2022/12/13 07:25:15;;;;;;;35.77;14.70;;;;;;;-6.98;100.00;98655.25;4953913;28;20196;-77
2022/12/13 07:28:01;;;;;;;33.47;14.97;;;;;;;-7.00;100.00;98659.56;4952807;29;20347;-78
2022/12/13 07:30:37;;;;;;;50.83;22.57;;;;;;;-6.97;100.00;98654.41;4956399;29;20188;-77
2022/12/13 07:33:15;;;;;;;44.03;19.87;;;;;;;-6.98;100.00;98647.53;4956274;29;20196;-77
2022/12/13 07:35:49;;;;;;;40.57;17.73;;;;;;;-6.93;100.00;98656.97;4950100;29;20200;-77
2022/12/13 07:38:22;;;;;;;39.50;16.83;;;;;;;-6.89;100.00;98659.53;4973330;28;20234;-77
2022/12/13 07:40:51;;;;;;;38.27;16.77;;;;;;;-6.88;100.00;98661.25;4993001;28;20199;-77
2022/12/13 07:43:19;;;;;;;43.47;19.23;;;;;;;-6.83;100.00;98654.38;4995096;28;20231;-78
2022/12/13 07:45:52;;;;;;;45.53;22.33;;;;;;;-6.76;100.00;98650.91;4990026;28;20195;-77
2022/12/13 07:48:21;;;;;;;46.63;21.60;;;;;;;-6.77;100.00;98650.03;4992000;28;20223;-77
2022/12/13 07:50:50;;;;;;;37.07;18.10;;;;;;;-6.73;100.00;98654.34;5005391;28;20248;-77
2022/12/13 07:53:22;;;;;;;36.33;18.47;;;;;;;-6.76;100.00;98654.31;5014248;28;20195;-77
2022/12/13 07:55:51;;;;;;;35.83;17.20;;;;;;;-6.72;100.00;98650.91;4974916;28;20207;-77
2022/12/13 07:58:20;;;;;;;40.00;18.80;;;;;;;-6.76;100.00;98651.75;4969053;28;20199;-77
2022/12/13 08:00:49;;;;;;;42.30;19.40;;;;;;;-6.65;100.00;98647.44;4966928;28;20203;-78
2022/12/13 08:03:21;;;;;;;62.00;27.53;;;;;;;-6.64;100.00;98649.16;4969830;28;20196;-77
2022/12/13 08:05:59;;;;;;;54.53;25.17;;;;;;;-6.66;100.00;98643.16;4972081;28;20195;-77
2022/12/13 08:08:31;;;;;;;51.90;22.77;;;;;;;-6.68;100.00;98650.00;4984616;28;20760;-77
2022/12/13 08:11:04;;;;;;;119.30;54.43;;;;;;;-6.58;100.00;98648.25;5013784;28;20202;-78
2022/12/13 08:13:33;;;;;;;70.90;35.93;;;;;;;-6.48;100.00;98639.63;5008104;28;20210;-78
2022/12/13 08:16:05;;;;;;;62.57;31.33;;;;;;;-6.34;100.00;98639.59;5004085;28;20202;-77
2022/12/13 08:18:55;;;;;;;115.57;50.30;;;;;;;-6.28;100.00;98644.69;5012514;28;20248;-77
2022/12/13 08:21:34;;;;;;;59.60;29.07;;;;;;;-6.22;100.00;98639.50;5004539;28;20290;-77
2022/12/13 08:24:22;;;;;;;44.07;20.70;;;;;;;-6.12;100.00;98637.75;5011758;28;20230;-77
2022/12/13 08:26:51;;;;;;;48.13;25.43;;;;;;;-5.99;100.00;98635.94;5014918;28;20198;-79
2022/12/13 08:29:20;;;;;;;40.37;18.47;;;;;;;-5.98;100.00;98633.38;5012739;28;20273;-77
2022/12/13 08:31:53;;;;;;;37.43;17.40;;;;;;;-5.80;100.00;98634.91;5010927;28;20229;-77
2022/12/13 08:34:21;;;;;;;40.70;19.07;;;;;;;-5.70;100.00;98631.38;5008114;28;20195;-77
2022/12/13 08:36:51;;;;;;;38.77;17.97;;;;;;;-5.60;100.00;98632.16;5006679;28;20191;-78
2022/12/13 08:39:29;;;;;;;43.37;19.73;;;;;;;-5.42;100.00;98632.03;4942948;28;20191;-77
2022/12/13 08:42:05;;;;;;;41.70;19.20;;;;;;;-5.36;100.00;98637.13;4952586;29;20196;-78
2022/12/13 08:44:44;;;;;;;37.77;17.23;;;;;;;-5.31;100.00;98639.66;4914569;29;20233;-77
2022/12/13 08:47:17;;;;;;;38.27;18.07;;;;;;;-5.19;100.00;98639.56;4912254;29;20194;-77
2022/12/13 08:49:51;;;;;;;39.30;18.20;;;;;;;-4.88;100.00;98652.19;4871735;29;20226;-77
2022/12/13 08:52:21;;;;;;;39.50;19.67;;;;;;;-4.88;100.00;98653.03;4879214;29;20206;-77
2022/12/13 08:54:50;;;;;;;45.80;19.87;;;;;;;-4.71;100.00;98648.53;4873489;29;20199;-77
2022/12/13 08:57:19;;;;;;;43.13;20.67;;;;;;;-4.56;100.00;98654.38;4902489;29;20629;-78
2022/12/13 08:59:52;;;;;;;38.23;18.80;;;;;;;-4.47;100.00;98652.56;4950552;28;20195;-77
2022/12/13 09:02:23;;;;;;;42.07;20.47;;;;;;;-4.44;100.00;98647.38;4994846;28;20283;-77
2022/12/13 09:04:52;;;;;;;38.40;18.27;;;;;;;-4.66;100.00;98649.31;5028510;28;20726;-78
2022/12/13 09:07:23;;;;;;;36.93;17.83;;;;;;;-4.22;100.00;98654.84;5039029;28;20243;-78
2022/12/13 09:09:53;;;;;;;34.63;17.13;;;;;;;-3.99;100.00;98650.19;5074657;28;20239;-77
2022/12/13 09:12:22;;;;;;;37.67;17.10;;;;;;;-3.80;100.00;98641.31;5067387;28;20203;-78
2022/12/13 09:14:58;;;;;;;39.37;17.17;;;;;;;-3.79;100.00;98648.19;5022218;28;20200;-78
2022/12/13 09:17:32;;;;;;;39.80;17.33;;;;;;;-3.67;100.00;98641.97;5074592;28;20193;-78
2022/12/13 09:20:08;;;;;;;35.87;17.37;;;;;;;-3.49;100.00;98639.09;5073632;28;20192;-78
2022/12/13 09:22:57;;;;;;;40.83;18.67;;;;;;;-3.35;100.00;98648.38;5074219;28;20200;-78
2022/12/13 09:25:32;;;;;;;40.57;17.20;;;;;;;-3.36;100.00;98650.13;5070493;28;20200;-78
2022/12/13 09:28:06;;;;;;;39.27;18.20;;;;;;;-3.17;100.00;98646.34;5069822;28;20216;-78
2022/12/13 09:30:34;;;;;;;37.23;18.23;;;;;;;-2.99;100.00;98650.34;4989097;28;20226;-78
2022/12/13 09:33:05;;;;;;;36.53;17.27;;;;;;;-2.84;100.00;98650.94;4988523;28;20287;-78
2022/12/13 09:35:56;;;;;;;37.17;17.23;;;;;;;-2.75;100.00;98642.97;4991855;28;20258;-78
2022/12/13 09:38:25;;;;;;;42.30;20.07;;;;;;;-2.54;100.00;98642.56;4992651;28;20195;-78
2022/12/13 09:40:56;;;;;;;40.03;18.10;;;;;;;-2.58;100.00;98642.66;4987527;28;20206;-78
2022/12/13 09:43:30;;;;;;;38.63;17.40;;;;;;;-2.37;100.00;98632.72;4931686;29;20236;-78
2022/12/13 09:46:18;;;;;;;58.17;29.33;;;;;;;-2.02;100.00;98638.91;4914504;29;20198;-78
2022/12/13 09:48:54;;;;;;;42.73;20.10;;;;;;;-1.89;100.00;98629.09;4910177;29;20357;-78
2022/12/13 09:51:35;;;;;;;38.50;18.47;;;;;;;-1.91;100.00;98626.53;4911465;29;20693;-78
2022/12/13 09:54:17;;;;;;;35.73;16.73;;;;;;;-1.54;100.00;98620.50;4917019;29;20253;-78
2022/12/13 09:56:49;;;;;;;36.90;19.93;;;;;;;-1.54;100.00;98623.09;4948306;28;20200;-79
2022/12/13 09:59:23;;;;;;;34.43;16.50;;;;;;;-1.40;100.00;98623.59;4949828;28;20196;-78
2022/12/13 10:01:54;;;;;;;37.03;17.43;;;;;;;-1.62;100.00;98606.84;4951363;28;20240;-78
2022/12/13 10:04:24;;;;;;;34.83;17.20;;;;;;;-1.44;100.00;98616.78;4965639;28;20222;-78
2022/12/13 10:06:54;;;;;;;35.53;17.53;;;;;;;-1.51;100.00;98608.28;4987688;28;20199;-78
2022/12/13 10:09:23;;;;;;;35.00;16.97;;;;;;;-1.34;100.00;98609.63;5067010;28;20216;-78
2022/12/13 10:11:54;;;;;;;37.90;17.33;;;;;;;-1.16;100.00;98614.31;5067797;28;20203;-78
2022/12/13 10:14:28;;;;;;;36.17;17.43;;;;;;;-1.15;100.00;98608.25;5068948;28;20188;-78
2022/12/13 10:17:00;;;;;;;36.03;17.63;;;;;;;-1.09;100.00;98609.84;5068661;28;20230;-78
2022/12/13 10:19:35;;;;;;;35.73;16.20;;;;;;;-0.96;100.00;98611.22;5072349;28;20200;-78
2022/12/13 10:22:06;;;;;;;38.60;16.93;;;;;;;-0.88;100.00;98604.91;5068034;28;20200;-77
2022/12/13 10:24:49;;;;;;;34.37;16.67;;;;;;;-0.62;100.00;98608.56;5069290;28;20253;-79
2022/12/13 10:27:20;;;;;;;36.00;17.83;;;;;;;-0.57;100.00;98609.28;5067739;28;20227;-78
2022/12/13 10:30:01;;;;;;;38.87;19.17;;;;;;;-0.34;100.00;98606.88;5068594;28;20232;-78
2022/12/13 10:32:34;;;;;;;37.37;18.27;;;;;;;-0.35;100.00;98591.31;5073237;28;20192;-78
2022/12/13 10:35:22;;;;;;;41.33;18.40;;;;;;;-0.35;100.00;98592.16;5064942;28;20196;-78
2022/12/13 10:37:51;;;;;;;41.60;19.50;;;;;;;-0.23;100.00;98582.28;5068891;28;20317;-78
2022/12/13 10:40:27;;;;;;;38.07;18.87;;;;;;;-0.42;100.00;98584.56;5067676;28;20216;-79
2022/12/13 10:43:16;;;;;;;38.57;17.80;;;;;;;-0.20;100.00;98582.19;5009436;28;20290;-78
2022/12/13 10:45:57;;;;;;;38.03;18.57;;;;;;;-0.24;100.00;98585.78;5004437;28;20197;-79
2022/12/13 10:48:38;;;;;;;41.10;19.20;;;;;;;-0.01;100.00;98583.34;5011140;28;20270;-79
2022/12/13 10:51:11;;;;;;;41.07;20.33;;;;;;;0.11;100.00;98579.53;5011245;28;20201;-79
2022/12/13 10:53:41;;;;;;;36.87;18.17;;;;;;;0.22;100.00;98575.69;4963993;28;20206;-79
2022/12/13 10:56:16;;;;;;;37.47;18.97;;;;;;;0.35;100.00;98572.66;5007011;28;20232;-79
2022/12/13 10:59:09;;;;;;;39.23;19.67;;;;;;;0.31;100.00;98563.25;5006876;28;20230;-79
2022/12/13 11:01:44;;;;;;;38.80;18.17;;;;;;;0.29;100.00;98571.13;5058765;28;20199;-78
2022/12/13 11:04:23;;;;;;;40.53;19.57;;;;;;;0.72;100.00;98562.75;5065016;28;20196;-78
2022/12/13 11:07:21;;;;;;;35.00;17.43;;;;;;;1.00;100.00;98569.63;5069883;28;20228;-78
2022/12/13 11:09:50;;;;;;;38.37;19.03;;;;;;;0.75;100.00;98554.81;5063580;28;20215;-78
2022/12/13 11:12:23;;;;;;;33.53;17.00;;;;;;;1.04;100.00;98548.59;5072779;28;20196;-79
2022/12/13 11:14:57;;;;;;;32.40;15.90;;;;;;;1.26;100.00;98551.28;5065991;28;20234;-80
2022/12/13 11:17:30;;;;;;;43.00;21.40;;;;;;;1.33;100.00;98550.13;5082912;28;20196;-79
2022/12/13 11:20:03;;;;;;;43.47;22.23;;;;;;;1.86;100.00;98544.69;5068543;28;20192;-79
2022/12/13 11:22:36;;;;;;;43.97;23.50;;;;;;;2.08;100.00;98547.28;5066381;28;20226;-79
2022/12/13 11:25:12;;;;;;;34.63;17.53;;;;;;;2.59;100.00;98544.31;5070059;28;20192;-79
2022/12/13 11:28:04;;;;;;;37.23;19.23;;;;;;;2.91;100.00;98541.28;5066515;28;20199;-79
2022/12/13 11:31:06;;;;;;;56.43;30.33;;;;;;;2.81;100.00;98536.44;5072872;28;20239;-79
2022/12/13 11:33:47;;;;;;;44.30;22.50;;;;;;;2.75;100.00;98535.84;5009459;28;20362;-79
2022/12/13 11:36:29;;;;;;;59.77;36.73;;;;;;;3.34;100.00;98529.75;5008610;28;20202;-79
2022/12/13 11:39:14;;;;;;;49.50;29.40;;;;;;;3.68;100.00;98529.94;5010996;28;20669;-79
2022/12/13 11:41:49;;;;;;;53.33;30.50;;;;;;;3.85;100.00;98516.03;5005036;28;20206;-79
2022/12/13 11:44:24;;;;;;;33.97;18.57;;;;;;;3.94;100.00;98523.44;5010414;28;20222;-79
2022/12/13 11:46:55;;;;;;;31.37;16.90;;;;;;;3.46;100.00;98523.97;5008125;28;20206;-79